Time;durP1;ratioP1;P1;durP2;ratioP2;P2;SDS_P1;SDS_P2;PMS_P1;PMS_P2;Temp;Humidity;BMP_temperature;BMP_pressure;BME280_temperature;BME280_humidity;BME280_pressure;Samples;Min_cycle;Max_cycle;Signal;HPM_P1;HPM_P2
2023/06/28 00:01:04;;;;;;;13.82;8.55;;;;;;;-145.63;41.91;38871.72;5063791;28;20041;-68
2023/06/28 00:03:30;;;;;;;12.30;9.90;;;;;;;-145.63;42.35;38928.44;5063882;28;20040;-68
2023/06/28 00:05:56;;;;;;;9.98;8.75;;;;;;;-145.63;42.37;38932.34;5063656;28;20025;-69
2023/06/28 00:08:22;;;;;;;10.68;9.55;;;;;;;-145.63;42.37;38815.00;5071045;28;20348;-69
2023/06/28 00:10:49;;;;;;;10.82;9.73;;;;;;;-145.63;42.27;38957.75;5080768;28;20047;-68
2023/06/28 00:13:15;;;;;;;9.52;8.63;;;;;;;-145.63;42.21;38934.28;5063843;28;20033;-68
2023/06/28 00:15:40;;;;;;;10.48;8.27;;;;;;;-145.63;42.45;38895.19;5081760;28;20066;-68
2023/06/28 00:18:08;;;;;;;10.57;8.55;;;;;;;-145.63;42.25;38920.59;5069765;28;20032;-68
2023/06/28 00:20:34;;;;;;;10.63;9.52;;;;;;;-145.63;42.58;38983.19;5070810;28;20032;-70
2023/06/28 00:22:59;;;;;;;9.98;8.98;;;;;;;-145.63;43.21;38942.13;5078839;28;20320;-69
2023/06/28 00:25:25;;;;;;;9.15;8.25;;;;;;;-145.63;43.83;38969.50;5069694;28;20032;-70
2023/06/28 00:27:50;;;;;;;9.27;8.13;;;;;;;-145.63;42.83;38918.66;5062932;28;20314;-69
2023/06/28 00:30:16;;;;;;;9.15;8.00;;;;;;;-145.63;42.73;38942.13;5077700;28;20035;-70
2023/06/28 00:32:42;;;;;;;8.98;7.97;;;;;;;-145.63;43.67;38942.13;5073097;28;20029;-69
2023/06/28 00:35:08;;;;;;;8.85;7.68;;;;;;;-145.63;42.71;38938.19;5068117;28;20040;-75
2023/06/28 00:37:33;;;;;;;12.30;8.10;;;;;;;-145.63;43.14;38928.44;5082600;28;20193;-77
2023/06/28 00:40:00;;;;;;;10.18;7.80;;;;;;;-145.63;44.11;38969.50;5062857;28;20025;-75
2023/06/28 00:42:25;;;;;;;10.75;7.30;;;;;;;-145.63;43.69;38932.34;5061966;28;20029;-74
2023/06/28 00:44:51;;;;;;;9.48;8.10;;;;;;;-145.63;44.25;38967.53;5073967;28;20070;-73
2023/06/28 00:47:18;;;;;;;10.48;7.43;;;;;;;-145.63;43.51;38934.28;5076706;28;20028;-73
2023/06/28 00:49:44;;;;;;;8.45;7.57;;;;;;;-145.63;44.27;38957.75;5064572;28;20036;-75
2023/06/28 00:52:12;;;;;;;8.80;7.90;;;;;;;-145.63;44.61;38906.91;5081530;28;20314;-74
2023/06/28 00:54:41;;;;;;;10.25;8.38;;;;;;;-145.63;44.32;38957.75;5065654;28;20028;-75
2023/06/28 00:57:07;;;;;;;10.35;7.28;;;;;;;-145.63;43.95;38926.47;5075647;28;20088;-74
2023/06/28 00:59:34;;;;;;;8.75;7.75;;;;;;;-145.63;44.29;38928.44;5074229;28;20045;-75
2023/06/28 01:02:01;;;;;;;12.70;9.13;;;;;;;-145.63;44.91;38953.84;5062814;28;20031;-75
2023/06/28 01:04:26;;;;;;;11.30;9.65;;;;;;;-145.63;45.20;38965.56;5062869;28;20052;-74
2023/06/28 01:06:54;;;;;;;11.82;10.13;;;;;;;-145.63;45.22;38961.66;5062471;28;20032;-72
2023/06/28 01:09:24;;;;;;;11.88;9.60;;;;;;;-145.63;44.82;38936.25;5076447;28;20111;-74
2023/06/28 01:11:53;;;;;;;13.63;11.85;;;;;;;-145.63;44.94;38152.16;5071619;28;20240;-73
2023/06/28 01:14:19;;;;;;;14.43;11.68;;;;;;;-145.63;44.99;38965.56;5068773;28;20036;-73
2023/06/28 01:16:49;;;;;;;15.30;11.30;;;;;;;-145.63;45.24;38985.13;5080729;28;20052;-73
2023/06/28 01:19:15;;;;;;;15.65;13.35;;;;;;;-145.63;46.02;39008.59;5062849;28;20138;-73
2023/06/28 01:21:45;;;;;;;15.27;12.77;;;;;;;-145.63;45.01;38932.34;5080225;28;20016;-72
2023/06/28 01:24:11;;;;;;;14.88;13.07;;;;;;;-145.63;45.84;38983.19;5068934;28;20336;-73
2023/06/28 01:26:38;;;;;;;15.75;12.85;;;;;;;-145.63;46.06;38981.22;5062926;28;20029;-72
2023/06/28 01:29:05;;;;;;;14.02;12.15;;;;;;;-145.63;46.40;39004.69;5066409;28;20067;-74
2023/06/28 01:31:31;;;;;;;17.63;12.55;;;;;;;-145.63;47.32;38991.00;5082692;28;20078;-74
2023/06/28 01:33:57;;;;;;;12.65;11.23;;;;;;;-145.63;46.65;38989.03;5062555;28;20080;-73
2023/06/28 01:36:22;;;;;;;15.63;11.80;;;;;;;-145.63;46.33;38983.19;5077350;28;20024;-72
2023/06/28 01:38:49;;;;;;;14.57;10.77;;;;;;;-145.63;46.60;38985.13;5072075;28;20033;-72
2023/06/28 01:41:16;;;;;;;13.30;11.88;;;;;;;-145.63;46.50;38983.19;5062468;28;20317;-74
2023/06/28 01:43:41;;;;;;;16.73;12.63;;;;;;;-145.63;47.17;39030.13;5045291;28;20090;-73
2023/06/28 01:46:08;;;;;;;13.40;10.18;;;;;;;-145.63;47.11;39032.06;5082450;28;20029;-71
2023/06/28 01:48:33;;;;;;;11.23;10.05;;;;;;;-145.63;47.72;39028.16;5065963;28;20021;-71
2023/06/28 01:50:59;;;;;;;11.10;10.00;;;;;;;-145.63;47.05;38959.72;5073769;28;20322;-73
2023/06/28 01:53:25;;;;;;;11.95;10.65;;;;;;;-145.63;47.51;39004.69;5077021;28;20245;-74
2023/06/28 01:55:51;;;;;;;10.15;9.20;;;;;;;-145.63;47.56;39024.25;5068361;28;20028;-74
2023/06/28 01:58:16;;;;;;;11.80;10.13;;;;;;;-145.63;47.54;38953.84;5086248;28;20035;-74
2023/06/28 02:00:42;;;;;;;11.75;9.52;;;;;;;-145.63;47.36;39000.78;5068505;28;20345;-73
2023/06/28 02:03:08;;;;;;;10.30;9.13;;;;;;;-145.63;48.16;39004.69;5065998;28;20070;-74
2023/06/28 02:05:33;;;;;;;10.27;8.88;;;;;;;-145.63;48.04;39008.59;5066192;28;20024;-73
2023/06/28 02:07:59;;;;;;;11.18;8.93;;;;;;;-145.63;47.45;39010.56;5068760;28;20047;-72
2023/06/28 02:10:24;;;;;;;9.50;8.50;;;;;;;-145.63;47.37;39000.78;5085579;28;20060;-74
2023/06/28 02:12:50;;;;;;;9.45;8.40;;;;;;;-145.63;47.68;38987.09;5067311;28;20044;-74
2023/06/28 02:15:16;;;;;;;9.75;8.75;;;;;;;-145.63;48.31;39018.38;5079624;28;20039;-72
2023/06/28 02:17:42;;;;;;;8.85;7.95;;;;;;;-145.63;47.68;39004.69;5076863;28;20033;-72
2023/06/28 02:20:10;;;;;;;8.85;7.80;;;;;;;-145.63;47.93;38969.50;5065739;28;20092;-74
2023/06/28 02:22:36;;;;;;;9.05;8.15;;;;;;;-145.63;48.32;39000.78;5065820;28;20025;-73
2023/06/28 02:25:02;;;;;;;10.95;9.32;;;;;;;-145.63;48.17;39004.69;5065452;28;20222;-73
2023/06/28 02:27:28;;;;;;;10.57;9.35;;;;;;;-145.63;48.75;39004.69;5065635;28;20025;-74
2023/06/28 02:29:56;;;;;;;10.02;9.02;;;;;;;-145.63;48.96;39020.34;5065404;28;20028;-71
2023/06/28 02:32:22;;;;;;;11.25;10.15;;;;;;;-145.63;49.46;39022.28;5071110;28;20158;-72
2023/06/28 02:34:47;;;;;;;10.63;9.52;;;;;;;-145.63;49.78;39020.34;5083833;28;20032;-71
2023/06/28 02:37:13;;;;;;;11.65;9.43;;;;;;;-145.63;49.11;39004.69;5063988;28;20033;-70
2023/06/28 02:39:38;;;;;;;11.60;9.68;;;;;;;-145.63;49.01;38973.41;5065063;28;20048;-70
2023/06/28 02:42:04;;;;;;;12.75;9.75;;;;;;;-145.63;49.49;38994.91;5063589;28;20021;-70
2023/06/28 02:44:30;;;;;;;11.23;10.13;;;;;;;-145.63;49.37;39002.72;5072228;28;20036;-70
2023/06/28 02:46:55;;;;;;;11.75;9.65;;;;;;;-145.63;49.31;38977.31;5082557;28;20035;-70
2023/06/28 02:49:21;;;;;;;10.13;9.13;;;;;;;-145.63;48.93;38996.88;5065147;28;20039;-71
2023/06/28 02:51:46;;;;;;;10.68;9.48;;;;;;;-145.63;49.77;39014.47;5064655;28;20029;-71
2023/06/28 02:54:12;;;;;;;12.35;9.75;;;;;;;-145.63;49.42;38971.44;5077635;28;20036;-70
2023/06/28 02:56:38;;;;;;;10.45;9.27;;;;;;;-145.63;49.17;39010.56;5076849;28;20021;-72
2023/06/28 02:59:03;;;;;;;9.82;8.70;;;;;;;-145.63;49.23;38965.56;5067967;28;20320;-71
2023/06/28 03:01:30;;;;;;;10.27;9.23;;;;;;;-145.63;49.71;39000.78;5084893;28;20028;-72
2023/06/28 03:03:55;;;;;;;10.10;9.00;;;;;;;-145.63;50.07;39012.50;5065553;28;20139;-74
2023/06/28 03:06:21;;;;;;;10.55;9.00;;;;;;;-145.63;50.01;39018.38;5074091;28;20036;-72
2023/06/28 03:08:46;;;;;;;11.65;9.80;;;;;;;-145.63;49.56;39004.69;5063835;28;20378;-72
2023/06/28 03:11:12;;;;;;;10.45;8.45;;;;;;;-145.63;49.48;39004.69;5068378;28;20033;-71
2023/06/28 03:13:37;;;;;;;10.88;9.10;;;;;;;-145.63;49.46;38996.88;5084478;28;20040;-71
2023/06/28 03:16:03;;;;;;;9.45;8.13;;;;;;;-145.63;49.82;39026.19;5064198;28;20036;-71
2023/06/28 03:18:28;;;;;;;9.25;7.47;;;;;;;-145.63;49.79;39002.72;5078241;28;20035;-71
2023/06/28 03:20:54;;;;;;;10.23;8.40;;;;;;;-145.63;49.95;39030.13;5074383;28;20028;-72
2023/06/28 03:23:19;;;;;;;7.97;7.18;;;;;;;-145.63;49.27;39012.50;5069626;28;20066;-72
2023/06/28 03:25:45;;;;;;;9.45;8.23;;;;;;;-145.63;49.59;39018.38;5068460;28;20058;-71
2023/06/28 03:28:12;;;;;;;7.97;7.18;;;;;;;-145.63;49.35;39012.50;5063988;28;20306;-72
2023/06/28 03:30:37;;;;;;;8.85;7.95;;;;;;;-145.63;48.91;39012.50;5063774;28;20313;-71
2023/06/28 03:33:03;;;;;;;10.65;8.63;;;;;;;-145.63;49.16;39004.69;5074301;28;20036;-73
2023/06/28 03:35:29;;;;;;;8.90;8.00;;;;;;;-145.63;48.67;39125.94;5077107;28;20078;-72
2023/06/28 03:37:55;;;;;;;7.88;6.97;;;;;;;-145.63;48.14;38942.13;5065504;28;20033;-71
2023/06/28 03:40:22;;;;;;;9.38;7.22;;;;;;;-145.63;48.27;38977.31;5077942;28;20337;-71
2023/06/28 03:42:48;;;;;;;8.43;7.63;;;;;;;-145.63;48.64;38992.97;5063371;28;20031;-71
2023/06/28 03:45:17;;;;;;;8.63;7.72;;;;;;;-145.63;48.41;38961.66;5075133;28;20189;-71
2023/06/28 03:47:43;;;;;;;9.07;8.18;;;;;;;-145.63;48.50;39004.69;5075627;28;20086;-71
2023/06/28 03:50:09;;;;;;;8.27;7.47;;;;;;;-145.63;48.64;39055.53;5066994;28;20025;-72
2023/06/28 03:52:35;;;;;;;12.20;7.97;;;;;;;-145.63;49.18;39012.50;5082491;28;20127;-72
2023/06/28 03:55:02;;;;;;;8.23;7.43;;;;;;;-145.63;49.33;38973.41;5064303;28;20356;-71
2023/06/28 03:57:29;;;;;;;8.63;7.50;;;;;;;-145.63;49.43;39014.47;5078022;28;20095;-71
2023/06/28 03:59:55;;;;;;;9.57;8.13;;;;;;;-145.63;49.17;39012.50;5073635;28;20368;-72
2023/06/28 04:02:20;;;;;;;9.40;7.63;;;;;;;-145.63;49.42;39049.66;5063542;28;20032;-71
2023/06/28 04:04:46;;;;;;;8.15;7.40;;;;;;;-145.63;48.68;39020.34;5063559;28;20028;-71
2023/06/28 04:07:12;;;;;;;10.98;8.00;;;;;;;-145.63;48.79;39024.25;5063392;28;20221;-72
2023/06/28 04:09:38;;;;;;;8.07;7.28;;;;;;;-145.63;49.03;39028.16;5078937;28;20043;-72
2023/06/28 04:12:04;;;;;;;9.43;8.18;;;;;;;-145.63;48.48;38965.56;5080607;28;20095;-72
2023/06/28 04:14:30;;;;;;;8.90;8.00;;;;;;;-145.63;48.18;38949.94;5076984;28;20025;-73
2023/06/28 04:16:56;;;;;;;8.95;8.02;;;;;;;-145.63;48.24;39041.84;5062921;28;20411;-72
2023/06/28 04:19:21;;;;;;;8.05;7.25;;;;;;;-145.63;47.93;38938.19;5063502;28;20225;-70
2023/06/28 04:21:47;;;;;;;7.60;6.90;;;;;;;-145.63;47.99;38946.03;5063209;28;20067;-71
2023/06/28 04:24:13;;;;;;;8.95;7.05;;;;;;;-145.63;47.37;38903.00;5063168;28;20025;-71
2023/06/28 04:26:38;;;;;;;7.18;6.55;;;;;;;-145.63;46.61;38893.22;5063261;28;20021;-70
2023/06/28 04:29:04;;;;;;;7.47;6.78;;;;;;;-145.63;46.30;38856.06;5063034;28;20037;-70
2023/06/28 04:31:29;;;;;;;7.72;6.88;;;;;;;-145.63;46.32;38859.97;5061709;28;20209;-70
2023/06/28 04:33:57;;;;;;;7.63;6.53;;;;;;;-145.63;45.41;38848.25;5063173;28;20037;-72
2023/06/28 04:36:25;;;;;;;6.43;5.82;;;;;;;-145.63;44.88;38820.88;5076135;28;20025;-72
2023/06/28 04:38:52;;;;;;;8.25;6.10;;;;;;;-145.63;44.25;38809.13;5072809;28;20055;-72
2023/06/28 04:41:27;;;;;;;6.60;6.00;;;;;;;-145.63;43.78;38799.34;5062526;28;20036;-73
2023/06/28 04:43:56;;;;;;;7.82;6.93;;;;;;;-145.63;43.99;38865.84;5063835;28;20029;-73
2023/06/28 04:46:23;;;;;;;7.50;6.80;;;;;;;-145.63;43.75;38746.56;5082917;28;20127;-73
2023/06/28 04:48:50;;;;;;;7.50;6.22;;;;;;;-145.63;44.24;38795.44;5065920;28;20029;-72
2023/06/28 04:51:16;;;;;;;7.32;6.18;;;;;;;-145.63;43.55;38801.31;5074976;28;20082;-72
2023/06/28 04:53:42;;;;;;;7.68;6.88;;;;;;;-145.63;43.39;38815.00;5075434;28;20229;-73
2023/06/28 04:56:08;;;;;;;11.75;7.90;;;;;;;-145.63;43.36;38832.59;5065199;28;20039;-72
2023/06/28 04:58:33;;;;;;;7.72;6.85;;;;;;;-145.63;43.74;38848.25;5081922;28;20036;-71
2023/06/28 05:01:03;;;;;;;8.43;6.85;;;;;;;-145.63;43.19;38770.03;5074543;28;20025;-72
2023/06/28 05:03:29;;;;;;;6.47;5.88;;;;;;;-145.63;43.45;38836.50;5063075;28;20172;-73
2023/06/28 05:05:55;;;;;;;7.22;6.53;;;;;;;-145.63;43.30;38816.97;5071974;28;20063;-73
2023/06/28 05:08:21;;;;;;;8.80;6.90;;;;;;;-145.63;43.74;38816.97;5078658;28;20056;-71
2023/06/28 05:10:46;;;;;;;8.05;6.55;;;;;;;-145.63;42.83;38813.03;5062592;28;20322;-73
2023/06/28 05:13:12;;;;;;;11.77;7.30;;;;;;;-145.63;43.58;38813.03;5082662;28;20052;-73
2023/06/28 05:15:37;;;;;;;7.22;6.20;;;;;;;-145.63;42.56;38815.00;5066646;28;20033;-72
2023/06/28 05:18:04;;;;;;;9.35;6.00;;;;;;;-145.63;43.19;38748.50;5073185;28;20024;-76
2023/06/28 05:20:31;;;;;;;7.78;6.53;;;;;;;-145.63;42.73;38822.81;5077416;28;20031;-75
2023/06/28 05:23:12;;;;;;;10.68;6.13;;;;;;;-145.63;42.63;38777.84;5062593;28;20029;-74
2023/06/28 05:25:42;;;;;;;9.73;6.82;;;;;;;-145.63;42.56;38807.19;5062779;28;20084;-72
2023/06/28 05:28:10;;;;;;;6.57;5.97;;;;;;;-145.63;41.64;38785.66;5064329;28;20075;-73
2023/06/28 05:30:35;;;;;;;6.35;5.75;;;;;;;-145.63;42.12;38848.25;5073899;28;20036;-71
2023/06/28 05:33:02;;;;;;;8.38;6.53;;;;;;;-145.63;42.56;38811.09;5074882;28;20028;-71
2023/06/28 05:35:32;;;;;;;7.63;6.22;;;;;;;-145.63;42.08;38758.28;5081010;28;20092;-70
2023/06/28 05:38:02;;;;;;;7.82;5.72;;;;;;;-145.63;41.81;38725.06;5066231;28;20025;-70
2023/06/28 05:40:29;;;;;;;6.97;6.28;;;;;;;-145.63;41.86;38721.13;5079323;28;20071;-71
2023/06/28 05:42:57;;;;;;;7.15;6.00;;;;;;;-145.63;41.60;38723.09;5083230;28;20087;-72
2023/06/28 05:45:23;;;;;;;7.13;6.25;;;;;;;-145.63;41.27;38746.56;5073232;28;20033;-70
2023/06/28 05:47:50;;;;;;;9.95;6.25;;;;;;;-145.63;41.44;38703.53;5072644;28;20329;-73
2023/06/28 05:50:16;;;;;;;10.80;6.65;;;;;;;-145.63;40.98;38685.94;5082903;28;20098;-72
2023/06/28 05:52:45;;;;;;;6.47;5.88;;;;;;;-145.63;40.40;38687.91;5066383;28;20023;-70
2023/06/28 05:55:10;;;;;;;8.50;6.00;;;;;;;-145.63;40.63;38625.31;5085041;28;20031;-71
2023/06/28 05:57:37;;;;;;;7.32;6.47;;;;;;;-145.63;40.17;38644.88;5071527;28;20029;-71
2023/06/28 06:00:08;;;;;;;7.03;6.30;;;;;;;-145.63;39.94;38680.06;5074672;28;20063;-75
2023/06/28 06:02:34;;;;;;;7.40;6.07;;;;;;;-145.63;39.67;38625.31;5080397;28;20029;-71
2023/06/28 06:05:03;;;;;;;8.00;6.65;;;;;;;-145.63;40.04;38676.16;5065784;28;20221;-71
2023/06/28 06:07:30;;;;;;;7.82;7.03;;;;;;;-145.63;40.07;38640.97;5066172;28;20089;-72
2023/06/28 06:09:56;;;;;;;8.32;6.75;;;;;;;-145.63;40.21;38648.78;5065844;28;20352;-71
2023/06/28 06:12:23;;;;;;;7.72;6.43;;;;;;;-145.63;40.44;38648.78;5077082;28;20213;-69
2023/06/28 06:14:50;;;;;;;7.57;6.88;;;;;;;-145.63;39.85;38652.69;5084989;28;20217;-70
2023/06/28 06:17:19;;;;;;;7.68;6.97;;;;;;;-145.63;40.03;38676.16;5083082;28;20092;-70
2023/06/28 06:19:44;;;;;;;9.13;6.60;;;;;;;-145.63;40.04;38713.31;5065787;28;20101;-71
2023/06/28 06:22:10;;;;;;;8.98;7.28;;;;;;;-145.63;40.28;38674.22;5083524;28;20066;-76
2023/06/28 06:24:36;;;;;;;9.48;6.90;;;;;;;-145.63;40.03;38689.84;5071723;28;20024;-75
2023/06/28 06:27:02;;;;;;;11.68;7.40;;;;;;;-145.63;40.22;38695.72;5066305;28;20248;-73
2023/06/28 06:29:28;;;;;;;9.27;7.30;;;;;;;-145.63;40.26;38633.16;5070363;28;20032;-74
2023/06/28 06:31:53;;;;;;;8.25;7.35;;;;;;;-145.63;40.30;38685.94;5085410;28;20070;-75
2023/06/28 06:34:19;;;;;;;10.00;7.63;;;;;;;-145.63;40.19;38650.75;5045554;28;20033;-75
2023/06/28 06:36:44;;;;;;;9.02;7.93;;;;;;;-145.63;39.92;38607.72;5075913;28;20063;-75
2023/06/28 06:39:10;;;;;;;11.75;8.23;;;;;;;-145.63;39.51;38662.47;5073665;28;20029;-74
2023/06/28 06:41:35;;;;;;;9.98;8.35;;;;;;;-145.63;39.92;38656.59;5065389;28;20025;-70
2023/06/28 06:44:01;;;;;;;13.82;8.02;;;;;;;-145.63;39.73;38629.22;5066658;28;20298;-71
2023/06/28 06:46:26;;;;;;;9.27;7.70;;;;;;;-145.63;40.03;38594.03;5085401;28;20039;-71
2023/06/28 06:48:52;;;;;;;10.77;8.30;;;;;;;-145.63;39.00;38551.03;5085293;28;20030;-72
2023/06/28 06:51:17;;;;;;;8.27;7.47;;;;;;;-145.63;39.13;38547.09;5073579;28;20027;-72
2023/06/28 06:53:43;;;;;;;10.93;7.97;;;;;;;-145.63;38.99;38603.81;5064838;28;20317;-74
2023/06/28 06:56:09;;;;;;;10.38;8.45;;;;;;;-145.63;38.96;38566.66;5065181;28;20213;-74
2023/06/28 06:58:34;;;;;;;11.90;7.97;;;;;;;-145.63;38.71;38551.03;5065135;28;20090;-73
2023/06/28 07:01:00;;;;;;;14.05;7.72;;;;;;;-145.63;39.03;38527.56;5082152;28;20025;-71
2023/06/28 07:03:25;;;;;;;8.52;7.60;;;;;;;-145.63;38.38;38498.22;5072500;28;20253;-71
2023/06/28 07:05:51;;;;;;;10.38;7.78;;;;;;;-145.63;37.84;38468.91;5058628;28;20013;-71
2023/06/28 07:08:17;;;;;;;9.48;8.45;;;;;;;-145.63;37.33;38457.16;5057988;28;20044;-71
2023/06/28 07:10:43;;;;;;;7.88;6.97;;;;;;;-145.63;37.14;38492.34;5054261;28;20045;-72
2023/06/28 07:13:10;;;;;;;10.63;7.20;;;;;;;-145.63;36.89;38574.47;5082649;28;20024;-72
2023/06/28 07:15:35;;;;;;;8.88;7.95;;;;;;;-145.63;36.87;38529.50;5070110;28;20096;-73
2023/06/28 07:18:01;;;;;;;9.52;6.93;;;;;;;-145.63;37.35;38490.41;5067083;28;20021;-73
2023/06/28 07:20:27;;;;;;;7.78;6.65;;;;;;;-145.63;37.63;38543.19;5058834;28;20032;-74
2023/06/28 07:22:52;;;;;;;10.38;7.13;;;;;;;-145.63;37.69;38476.72;5052748;28;20079;-71
2023/06/28 07:25:18;;;;;;;8.27;6.65;;;;;;;-145.63;37.56;38431.75;5061167;28;20032;-71
2023/06/28 07:27:44;;;;;;;7.93;6.53;;;;;;;-145.63;36.80;38396.53;5058418;28;20036;-69
2023/06/28 07:30:10;;;;;;;7.53;6.50;;;;;;;-145.63;35.35;38402.41;5064646;28;20040;-71
2023/06/28 07:32:35;;;;;;;8.18;6.20;;;;;;;-145.63;35.55;38335.94;5079176;28;20083;-71
2023/06/28 07:35:01;;;;;;;7.03;6.32;;;;;;;-145.63;34.83;38466.94;5064626;28;20440;-72
2023/06/28 07:37:27;;;;;;;8.93;6.60;;;;;;;-145.63;35.44;38367.22;5064601;28;20024;-71
2023/06/28 07:39:52;;;;;;;8.65;6.75;;;;;;;-145.63;35.39;38363.31;5070395;28;20060;-71
2023/06/28 07:42:21;;;;;;;9.32;7.03;;;;;;;-145.63;34.76;38355.50;5057592;28;20317;-71
2023/06/28 07:44:47;;;;;;;9.50;6.30;;;;;;;-145.63;34.46;38290.97;5056734;28;20037;-73
2023/06/28 07:47:13;;;;;;;6.53;5.85;;;;;;;-145.63;33.87;38294.88;5054864;28;20063;-73
2023/06/28 07:49:38;;;;;;;7.25;6.13;;;;;;;-145.63;33.65;38328.13;5055674;28;20063;-73
2023/06/28 07:52:04;;;;;;;9.95;6.20;;;;;;;-145.63;33.89;38308.56;5056660;28;20031;-72
2023/06/28 07:54:30;;;;;;;8.10;7.38;;;;;;;-145.63;32.85;38290.97;5056604;28;20029;-74
2023/06/28 07:56:55;;;;;;;6.80;6.10;;;;;;;-145.63;32.96;38255.78;5055751;28;20176;-75
2023/06/28 07:59:21;;;;;;;7.43;6.05;;;;;;;-145.63;33.23;38261.63;5057729;28;20025;-74
2023/06/28 08:01:47;;;;;;;7.78;6.82;;;;;;;-145.63;33.55;38306.59;5053069;28;20021;-72
2023/06/28 08:04:15;;;;;;;10.05;6.10;;;;;;;-145.63;33.81;38339.84;5051012;28;20035;-72
2023/06/28 08:06:41;;;;;;;7.35;6.10;;;;;;;-145.63;33.81;38285.09;5056317;28;20053;-74
2023/06/28 08:09:07;;;;;;;8.30;6.40;;;;;;;-145.63;33.83;38257.72;5057450;28;20060;-69
2023/06/28 08:11:33;;;;;;;8.95;6.18;;;;;;;-145.63;33.85;38199.06;5062464;28;20032;-70
2023/06/28 08:13:59;;;;;;;8.98;6.22;;;;;;;-145.63;32.96;38187.34;5063333;28;20035;-70
2023/06/28 08:16:24;;;;;;;6.15;5.50;;;;;;;-145.63;31.81;38240.13;5063561;28;20074;-70
2023/06/28 08:18:50;;;;;;;6.30;5.70;;;;;;;-145.63;31.38;38247.94;5078892;28;20358;-69
2023/06/28 08:21:15;;;;;;;5.93;5.32;;;;;;;-145.63;31.02;38234.25;5063584;28;20024;-71
2023/06/28 08:23:41;;;;;;;5.85;5.35;;;;;;;-145.63;31.61;38290.97;5068870;28;20040;-68
2023/06/28 08:26:06;;;;;;;10.23;6.13;;;;;;;-145.63;32.08;38300.75;5064189;28;20036;-69
2023/06/28 08:28:32;;;;;;;7.25;6.53;;;;;;;-145.63;31.66;38247.94;5083375;28;20032;-67
2023/06/28 08:30:58;;;;;;;8.13;5.07;;;;;;;-145.63;29.95;38277.28;5066650;28;20021;-68
2023/06/28 08:33:24;;;;;;;5.82;5.22;;;;;;;-145.63;29.71;38273.38;5056766;28;20027;-69
2023/06/28 08:35:50;;;;;;;7.43;5.28;;;;;;;-145.63;30.05;38267.50;5076482;28;20035;-70
2023/06/28 08:38:16;;;;;;;7.28;5.38;;;;;;;-145.63;30.35;38292.91;5063806;28;20029;-69
2023/06/28 08:40:41;;;;;;;6.20;5.28;;;;;;;-145.63;30.77;38263.59;5053788;28;20024;-68
2023/06/28 08:43:12;;;;;;;6.22;5.35;;;;;;;-145.63;31.06;38355.50;5059120;28;20266;-70
2023/06/28 08:45:38;;;;;;;6.25;5.65;;;;;;;-145.63;30.89;38333.97;5065112;28;20028;-68
2023/06/28 08:48:04;;;;;;;5.97;5.47;;;;;;;-145.63;30.39;38251.84;5052527;28;20049;-67
2023/06/28 08:50:31;;;;;;;8.68;5.57;;;;;;;-145.63;30.38;38251.84;5055646;28;20041;-68
2023/06/28 08:52:58;;;;;;;6.85;5.47;;;;;;;-145.63;30.68;38220.56;5062767;28;20025;-68
2023/06/28 08:55:24;;;;;;;6.00;5.10;;;;;;;-145.63;29.57;38246.00;5055348;28;20017;-68
2023/06/28 08:57:50;;;;;;;5.10;4.60;;;;;;;-145.63;28.62;38246.00;5058138;28;20044;-69
2023/06/28 09:00:15;;;;;;;5.30;4.60;;;;;;;-145.63;27.72;38199.06;5072872;28;20069;-68
2023/06/28 09:02:43;;;;;;;15.43;13.55;;;;;;;-145.63;27.83;38228.41;5077939;28;20294;-68
2023/06/28 09:05:09;;;;;;;6.07;4.28;;;;;;;-145.63;27.38;38251.84;5058212;28;20029;-69
2023/06/28 09:07:38;;;;;;;5.65;4.95;;;;;;;-145.63;27.55;38281.19;5065911;28;20083;-69
2023/06/28 09:10:05;;;;;;;5.72;4.93;;;;;;;-145.63;28.13;38214.72;5063894;28;20103;-68
2023/06/28 09:12:31;;;;;;;6.15;4.43;;;;;;;-145.63;27.72;38222.53;5075740;28;20416;-69
2023/06/28 09:14:58;;;;;;;5.45;4.45;;;;;;;-145.63;28.04;38226.44;5079743;28;20036;-68
2023/06/28 09:17:23;;;;;;;5.80;5.00;;;;;;;-145.63;26.89;38226.44;5069621;28;20281;-67
2023/06/28 09:19:49;;;;;;;21.55;7.32;;;;;;;-145.63;27.25;38220.56;5087012;28;20096;-70
2023/06/28 09:22:15;;;;;;;6.93;4.75;;;;;;;-145.63;27.35;38183.44;5069007;28;20021;-69
2023/06/28 09:24:41;;;;;;;5.72;4.20;;;;;;;-145.63;27.16;38199.06;5073094;28;20063;-69
2023/06/28 09:27:07;;;;;;;6.80;4.50;;;;;;;-145.63;27.72;38191.25;5074990;28;20036;-68
2023/06/28 09:29:33;;;;;;;5.60;4.72;;;;;;;-145.63;27.58;38247.94;5083168;28;20033;-68
2023/06/28 09:32:02;;;;;;;6.93;4.75;;;;;;;-145.63;27.25;38242.09;5066661;28;20086;-68
2023/06/28 09:34:28;;;;;;;5.85;4.38;;;;;;;-145.63;27.46;38363.31;5064501;28;20032;-68
2023/06/28 09:36:58;;;;;;;8.00;4.90;;;;;;;-145.63;27.86;38187.34;5059540;28;20222;-69
2023/06/28 09:39:25;;;;;;;5.18;4.30;;;;;;;-145.63;27.94;38202.97;5059781;28;20318;-69
2023/06/28 09:41:50;;;;;;;6.53;4.45;;;;;;;-145.63;27.52;38152.16;5060001;28;20077;-68
2023/06/28 09:44:31;;;;;;;5.82;4.43;;;;;;;-145.63;27.75;38179.50;5062984;28;20029;-69
2023/06/28 09:47:04;;;;;;;8.00;4.85;;;;;;;-145.63;27.08;38175.59;5037017;28;20029;-68
2023/06/28 09:49:30;;;;;;;10.35;4.95;;;;;;;-145.63;27.65;38187.34;5061061;28;20206;-68
2023/06/28 09:52:03;;;;;;;50.60;9.70;;;;;;;-145.63;28.14;38158.00;5058060;28;20020;-68
2023/06/28 09:54:33;;;;;;;7.03;4.85;;;;;;;-145.63;27.78;38158.00;5057683;28;20024;-69
2023/06/28 09:57:00;;;;;;;5.07;4.68;;;;;;;-145.63;27.15;38210.81;5059328;28;20041;-68
2023/06/28 09:59:28;;;;;;;5.05;4.60;;;;;;;-145.63;27.42;38220.56;5066592;28;20028;-68
2023/06/28 10:01:56;;;;;;;7.18;4.65;;;;;;;-145.63;27.90;38220.56;5060019;28;20063;-67
2023/06/28 10:04:25;;;;;;;7.03;4.57;;;;;;;-145.63;28.30;38187.34;5050871;28;20088;-68
2023/06/28 10:06:51;;;;;;;5.97;5.20;;;;;;;-145.63;27.72;38257.72;5058408;28;20310;-68
2023/06/28 10:09:22;;;;;;;5.72;4.90;;;;;;;-145.63;28.04;38206.88;5058197;28;20055;-68
2023/06/28 10:11:48;;;;;;;6.05;4.70;;;;;;;-145.63;27.81;38251.84;5057514;28;20066;-67
2023/06/28 10:14:17;;;;;;;5.32;4.82;;;;;;;-145.63;28.01;38269.47;5056586;28;20040;-68
2023/06/28 10:16:45;;;;;;;6.00;4.65;;;;;;;-145.63;28.33;38289.00;5056518;28;20045;-67
2023/06/28 10:19:11;;;;;;;7.70;5.30;;;;;;;-145.63;28.50;38320.28;5057370;28;20281;-68
2023/06/28 10:21:39;;;;;;;5.38;4.82;;;;;;;-145.63;28.09;38333.97;5057525;28;20034;-67
2023/06/28 10:24:06;;;;;;;6.63;4.40;;;;;;;-145.63;27.90;38308.56;5059765;28;20025;-70
2023/06/28 10:26:33;;;;;;;5.47;4.32;;;;;;;-145.63;27.95;38322.25;5055300;28;20051;-69
2023/06/28 10:28:58;;;;;;;4.28;3.88;;;;;;;-145.63;27.88;38369.19;5055243;28;20026;-69
2023/06/28 10:31:24;;;;;;;4.97;4.35;;;;;;;-145.63;27.77;38343.75;5058131;28;20201;-70
2023/06/28 10:33:50;;;;;;;7.18;4.40;;;;;;;-145.63;28.09;38289.00;5060389;28;20362;-69
2023/06/28 10:36:16;;;;;;;10.70;6.00;;;;;;;-145.63;27.97;38300.75;5059990;28;20021;-68
2023/06/28 10:38:43;;;;;;;5.45;4.90;;;;;;;-145.63;28.11;38290.97;5059803;28;20232;-69
2023/06/28 10:41:14;;;;;;;7.18;4.95;;;;;;;-145.63;28.22;38269.47;5054400;28;20029;-70
2023/06/28 10:43:40;;;;;;;9.50;5.18;;;;;;;-145.63;28.31;38265.53;5056262;28;20044;-72
2023/06/28 10:46:25;;;;;;;5.22;4.72;;;;;;;-145.63;28.15;38236.22;5059671;28;20036;-69
2023/06/28 10:48:55;;;;;;;6.55;4.43;;;;;;;-145.63;28.51;38285.09;5072593;28;20035;-70
2023/06/28 10:51:24;;;;;;;10.38;4.80;;;;;;;-145.63;28.45;38224.47;5074744;28;20029;-68
2023/06/28 10:53:52;;;;;;;6.90;4.60;;;;;;;-145.63;28.47;38222.53;5070624;28;20024;-73
2023/06/28 10:56:20;;;;;;;9.00;5.32;;;;;;;-145.63;28.78;38242.09;5084213;28;20388;-74
2023/06/28 10:58:47;;;;;;;7.28;4.70;;;;;;;-145.63;28.07;38204.94;5064981;28;20037;-70
2023/06/28 11:01:31;;;;;;;7.03;4.80;;;;;;;-145.63;27.10;38249.91;5067289;28;20025;-72
2023/06/28 11:04:16;;;;;;;5.20;3.95;;;;;;;-145.63;26.53;38199.06;5050154;28;20100;-70
2023/06/28 11:06:42;;;;;;;4.60;4.07;;;;;;;-145.63;26.33;38255.78;5052907;28;20033;-71
2023/06/28 11:09:14;;;;;;;4.15;3.75;;;;;;;-145.63;26.29;38253.81;5054282;28;20048;-70
2023/06/28 11:11:41;;;;;;;;;;;;;;;-145.63;26.35;38212.75;5059768;28;20100;-70